sensor_id;sensor_type;location;lat;lon;timestamp;P1;durP1;ratioP1;P2;durP2;ratioP2
20348;SDS011;10332;50.208;18.988;2023-04-16T00:00:30;37.35;;;23.90;;
20348;SDS011;10332;50.208;18.988;2023-04-16T00:03:18;30.90;;;19.48;;
20348;SDS011;10332;50.208;18.988;2023-04-16T00:05:46;32.90;;;20.63;;
20348;SDS011;10332;50.208;18.988;2023-04-16T00:08:13;31.20;;;18.92;;
20348;SDS011;10332;50.208;18.988;2023-04-16T00:10:41;30.70;;;19.63;;
20348;SDS011;10332;50.208;18.988;2023-04-16T00:13:09;33.08;;;19.60;;
20348;SDS011;10332;50.208;18.988;2023-04-16T00:15:36;32.47;;;19.55;;
20348;SDS011;10332;50.208;18.988;2023-04-16T00:18:03;39.67;;;22.23;;
20348;SDS011;10332;50.208;18.988;2023-04-16T00:20:31;33.60;;;18.45;;
20348;SDS011;10332;50.208;18.988;2023-04-16T00:22:58;30.13;;;18.42;;
20348;SDS011;10332;50.208;18.988;2023-04-16T00:25:26;30.42;;;18.15;;
20348;SDS011;10332;50.208;18.988;2023-04-16T00:27:53;26.85;;;17.40;;
20348;SDS011;10332;50.208;18.988;2023-04-16T00:30:21;38.47;;;23.00;;
20348;SDS011;10332;50.208;18.988;2023-04-16T00:32:49;32.60;;;20.77;;
20348;SDS011;10332;50.208;18.988;2023-04-16T00:35:16;32.70;;;20.95;;
20348;SDS011;10332;50.208;18.988;2023-04-16T00:37:44;41.47;;;25.02;;
20348;SDS011;10332;50.208;18.988;2023-04-16T00:40:11;32.10;;;19.40;;
20348;SDS011;10332;50.208;18.988;2023-04-16T00:42:39;35.63;;;22.73;;
20348;SDS011;10332;50.208;18.988;2023-04-16T00:45:06;32.45;;;20.73;;
20348;SDS011;10332;50.208;18.988;2023-04-16T00:47:35;36.25;;;22.20;;
20348;SDS011;10332;50.208;18.988;2023-04-16T00:50:02;35.50;;;22.98;;
20348;SDS011;10332;50.208;18.988;2023-04-16T00:52:31;42.63;;;27.35;;
20348;SDS011;10332;50.208;18.988;2023-04-16T00:55:00;43.85;;;27.75;;
20348;SDS011;10332;50.208;18.988;2023-04-16T00:57:27;44.63;;;29.40;;
20348;SDS011;10332;50.208;18.988;2023-04-16T00:59:55;39.28;;;25.98;;
20348;SDS011;10332;50.208;18.988;2023-04-16T01:02:24;44.08;;;28.23;;
20348;SDS011;10332;50.208;18.988;2023-04-16T01:04:52;39.58;;;26.63;;
20348;SDS011;10332;50.208;18.988;2023-04-16T01:07:21;41.53;;;27.23;;
20348;SDS011;10332;50.208;18.988;2023-04-16T01:09:48;42.42;;;27.40;;
20348;SDS011;10332;50.208;18.988;2023-04-16T01:12:16;36.70;;;24.25;;
20348;SDS011;10332;50.208;18.988;2023-04-16T01:14:43;41.45;;;25.77;;
20348;SDS011;10332;50.208;18.988;2023-04-16T01:17:11;41.45;;;25.20;;
20348;SDS011;10332;50.208;18.988;2023-04-16T01:19:38;49.22;;;29.23;;
20348;SDS011;10332;50.208;18.988;2023-04-16T01:22:06;40.75;;;25.30;;
20348;SDS011;10332;50.208;18.988;2023-04-16T01:24:33;43.58;;;27.73;;
20348;SDS011;10332;50.208;18.988;2023-04-16T01:27:02;46.13;;;27.50;;
20348;SDS011;10332;50.208;18.988;2023-04-16T01:29:29;40.88;;;25.75;;
20348;SDS011;10332;50.208;18.988;2023-04-16T01:31:57;44.63;;;27.60;;
20348;SDS011;10332;50.208;18.988;2023-04-16T01:34:24;42.05;;;26.45;;
20348;SDS011;10332;50.208;18.988;2023-04-16T01:36:52;46.63;;;29.58;;
20348;SDS011;10332;50.208;18.988;2023-04-16T01:39:19;44.00;;;28.40;;
20348;SDS011;10332;50.208;18.988;2023-04-16T01:41:47;43.60;;;27.33;;
20348;SDS011;10332;50.208;18.988;2023-04-16T01:44:14;43.88;;;28.13;;
20348;SDS011;10332;50.208;18.988;2023-04-16T01:46:41;44.88;;;28.63;;
20348;SDS011;10332;50.208;18.988;2023-04-16T01:49:10;44.13;;;28.55;;
20348;SDS011;10332;50.208;18.988;2023-04-16T01:51:38;48.50;;;29.60;;
20348;SDS011;10332;50.208;18.988;2023-04-16T01:54:05;42.10;;;27.92;;
20348;SDS011;10332;50.208;18.988;2023-04-16T01:56:33;46.10;;;28.60;;
20348;SDS011;10332;50.208;18.988;2023-04-16T01:59:01;46.92;;;29.08;;
20348;SDS011;10332;50.208;18.988;2023-04-16T02:01:29;36.55;;;24.98;;
20348;SDS011;10332;50.208;18.988;2023-04-16T02:03:57;40.33;;;26.20;;
20348;SDS011;10332;50.208;18.988;2023-04-16T02:06:25;37.97;;;24.50;;
20348;SDS011;10332;50.208;18.988;2023-04-16T02:08:52;37.13;;;24.52;;
20348;SDS011;10332;50.208;18.988;2023-04-16T02:11:20;38.45;;;25.02;;
20348;SDS011;10332;50.208;18.988;2023-04-16T02:13:47;35.65;;;24.33;;
20348;SDS011;10332;50.208;18.988;2023-04-16T02:16:15;39.58;;;26.35;;
20348;SDS011;10332;50.208;18.988;2023-04-16T02:18:42;39.10;;;25.45;;
20348;SDS011;10332;50.208;18.988;2023-04-16T02:21:10;44.50;;;26.75;;
20348;SDS011;10332;50.208;18.988;2023-04-16T02:23:37;43.05;;;27.27;;
20348;SDS011;10332;50.208;18.988;2023-04-16T02:26:06;36.75;;;24.98;;
20348;SDS011;10332;50.208;18.988;2023-04-16T02:28:34;42.50;;;27.17;;
20348;SDS011;10332;50.208;18.988;2023-04-16T02:31:01;42.70;;;27.75;;
20348;SDS011;10332;50.208;18.988;2023-04-16T02:33:29;42.90;;;27.80;;
20348;SDS011;10332;50.208;18.988;2023-04-16T02:35:57;45.60;;;29.10;;
20348;SDS011;10332;50.208;18.988;2023-04-16T02:38:25;40.53;;;27.73;;
20348;SDS011;10332;50.208;18.988;2023-04-16T02:40:52;39.85;;;27.33;;
20348;SDS011;10332;50.208;18.988;2023-04-16T02:43:19;37.72;;;25.27;;
20348;SDS011;10332;50.208;18.988;2023-04-16T02:45:47;37.17;;;24.88;;
20348;SDS011;10332;50.208;18.988;2023-04-16T02:48:14;33.10;;;23.90;;
20348;SDS011;10332;50.208;18.988;2023-04-16T02:50:42;33.67;;;23.05;;
20348;SDS011;10332;50.208;18.988;2023-04-16T02:53:09;38.60;;;24.60;;
20348;SDS011;10332;50.208;18.988;2023-04-16T02:55:37;37.65;;;26.17;;
20348;SDS011;10332;50.208;18.988;2023-04-16T02:58:04;36.85;;;25.58;;
20348;SDS011;10332;50.208;18.988;2023-04-16T03:00:32;41.63;;;27.45;;
20348;SDS011;10332;50.208;18.988;2023-04-16T03:02:59;37.60;;;26.10;;
20348;SDS011;10332;50.208;18.988;2023-04-16T03:05:27;36.50;;;24.80;;
20348;SDS011;10332;50.208;18.988;2023-04-16T03:07:54;46.30;;;29.27;;
20348;SDS011;10332;50.208;18.988;2023-04-16T03:10:23;45.63;;;29.73;;
20348;SDS011;10332;50.208;18.988;2023-04-16T03:12:50;39.72;;;25.92;;
20348;SDS011;10332;50.208;18.988;2023-04-16T03:15:17;37.45;;;24.73;;
20348;SDS011;10332;50.208;18.988;2023-04-16T03:17:45;32.80;;;22.55;;
20348;SDS011;10332;50.208;18.988;2023-04-16T03:20:13;25.85;;;18.15;;
20348;SDS011;10332;50.208;18.988;2023-04-16T03:22:42;40.55;;;27.15;;
20348;SDS011;10332;50.208;18.988;2023-04-16T03:25:10;36.97;;;24.42;;
20348;SDS011;10332;50.208;18.988;2023-04-16T03:27:37;27.55;;;19.10;;
20348;SDS011;10332;50.208;18.988;2023-04-16T03:30:06;37.00;;;23.30;;
20348;SDS011;10332;50.208;18.988;2023-04-16T03:32:36;48.05;;;32.17;;
20348;SDS011;10332;50.208;18.988;2023-04-16T03:35:04;41.50;;;27.40;;
20348;SDS011;10332;50.208;18.988;2023-04-16T03:37:33;43.88;;;29.58;;
20348;SDS011;10332;50.208;18.988;2023-04-16T03:40:01;52.80;;;34.95;;
20348;SDS011;10332;50.208;18.988;2023-04-16T03:42:31;50.15;;;32.45;;
20348;SDS011;10332;50.208;18.988;2023-04-16T03:44:59;61.90;;;37.90;;
20348;SDS011;10332;50.208;18.988;2023-04-16T03:47:26;53.08;;;34.22;;
20348;SDS011;10332;50.208;18.988;2023-04-16T03:49:54;53.58;;;33.20;;
20348;SDS011;10332;50.208;18.988;2023-04-16T03:52:21;49.67;;;30.63;;
20348;SDS011;10332;50.208;18.988;2023-04-16T03:54:49;53.97;;;32.55;;
20348;SDS011;10332;50.208;18.988;2023-04-16T03:57:16;52.88;;;32.45;;
20348;SDS011;10332;50.208;18.988;2023-04-16T03:59:44;39.33;;;23.73;;
20348;SDS011;10332;50.208;18.988;2023-04-16T04:02:11;112.80;;;67.65;;
20348;SDS011;10332;50.208;18.988;2023-04-16T04:04:39;70.28;;;44.53;;
20348;SDS011;10332;50.208;18.988;2023-04-16T04:07:06;67.20;;;40.75;;
20348;SDS011;10332;50.208;18.988;2023-04-16T04:09:34;59.78;;;35.15;;
20348;SDS011;10332;50.208;18.988;2023-04-16T04:12:01;47.63;;;29.08;;
20348;SDS011;10332;50.208;18.988;2023-04-16T04:14:29;46.08;;;28.90;;
20348;SDS011;10332;50.208;18.988;2023-04-16T04:16:56;44.17;;;26.38;;
20348;SDS011;10332;50.208;18.988;2023-04-16T04:19:24;52.85;;;29.85;;
20348;SDS011;10332;50.208;18.988;2023-04-16T04:21:51;46.22;;;27.20;;
20348;SDS011;10332;50.208;18.988;2023-04-16T04:24:18;44.90;;;26.45;;
20348;SDS011;10332;50.208;18.988;2023-04-16T04:26:46;55.53;;;32.38;;
20348;SDS011;10332;50.208;18.988;2023-04-16T04:29:13;64.07;;;31.20;;
20348;SDS011;10332;50.208;18.988;2023-04-16T04:31:40;57.97;;;31.48;;
20348;SDS011;10332;50.208;18.988;2023-04-16T04:34:08;53.40;;;30.42;;
20348;SDS011;10332;50.208;18.988;2023-04-16T04:36:35;41.47;;;23.10;;
20348;SDS011;10332;50.208;18.988;2023-04-16T04:39:03;53.00;;;28.42;;
20348;SDS011;10332;50.208;18.988;2023-04-16T04:41:31;42.92;;;25.77;;
20348;SDS011;10332;50.208;18.988;2023-04-16T04:43:58;64.28;;;33.40;;
20348;SDS011;10332;50.208;18.988;2023-04-16T04:46:26;68.47;;;38.00;;
20348;SDS011;10332;50.208;18.988;2023-04-16T04:48:53;61.58;;;36.10;;
20348;SDS011;10332;50.208;18.988;2023-04-16T04:51:21;50.25;;;31.25;;
20348;SDS011;10332;50.208;18.988;2023-04-16T04:53:48;42.40;;;26.30;;
20348;SDS011;10332;50.208;18.988;2023-04-16T04:56:16;47.72;;;30.15;;
20348;SDS011;10332;50.208;18.988;2023-04-16T04:58:43;51.08;;;31.33;;
20348;SDS011;10332;50.208;18.988;2023-04-16T05:01:11;56.80;;;34.90;;
20348;SDS011;10332;50.208;18.988;2023-04-16T05:03:38;58.67;;;34.15;;
20348;SDS011;10332;50.208;18.988;2023-04-16T05:06:06;53.38;;;32.70;;
20348;SDS011;10332;50.208;18.988;2023-04-16T05:08:33;47.97;;;29.30;;
20348;SDS011;10332;50.208;18.988;2023-04-16T05:11:01;45.72;;;28.10;;
20348;SDS011;10332;50.208;18.988;2023-04-16T05:13:28;48.50;;;28.52;;
20348;SDS011;10332;50.208;18.988;2023-04-16T05:15:55;58.35;;;33.55;;
20348;SDS011;10332;50.208;18.988;2023-04-16T05:18:24;51.00;;;30.17;;
20348;SDS011;10332;50.208;18.988;2023-04-16T05:20:52;44.83;;;28.35;;
20348;SDS011;10332;50.208;18.988;2023-04-16T05:23:19;48.40;;;29.98;;
20348;SDS011;10332;50.208;18.988;2023-04-16T05:25:47;48.88;;;31.67;;
20348;SDS011;10332;50.208;18.988;2023-04-16T05:28:14;48.95;;;30.52;;
20348;SDS011;10332;50.208;18.988;2023-04-16T05:30:41;46.70;;;28.90;;
20348;SDS011;10332;50.208;18.988;2023-04-16T05:33:09;46.38;;;28.73;;
20348;SDS011;10332;50.208;18.988;2023-04-16T05:35:36;40.15;;;25.60;;
20348;SDS011;10332;50.208;18.988;2023-04-16T05:38:04;42.80;;;26.92;;
20348;SDS011;10332;50.208;18.988;2023-04-16T05:40:31;42.50;;;26.23;;
20348;SDS011;10332;50.208;18.988;2023-04-16T05:42:59;38.55;;;25.23;;
20348;SDS011;10332;50.208;18.988;2023-04-16T05:45:26;34.80;;;23.15;;
20348;SDS011;10332;50.208;18.988;2023-04-16T05:47:54;36.50;;;23.98;;
20348;SDS011;10332;50.208;18.988;2023-04-16T05:50:21;35.17;;;22.77;;
20348;SDS011;10332;50.208;18.988;2023-04-16T05:52:49;37.53;;;23.02;;
20348;SDS011;10332;50.208;18.988;2023-04-16T05:55:16;35.22;;;23.08;;
20348;SDS011;10332;50.208;18.988;2023-04-16T05:57:44;31.52;;;21.40;;
20348;SDS011;10332;50.208;18.988;2023-04-16T06:00:12;33.38;;;22.20;;
20348;SDS011;10332;50.208;18.988;2023-04-16T06:02:40;29.73;;;18.75;;
20348;SDS011;10332;50.208;18.988;2023-04-16T06:05:08;36.08;;;22.88;;
20348;SDS011;10332;50.208;18.988;2023-04-16T06:07:36;35.35;;;22.75;;
20348;SDS011;10332;50.208;18.988;2023-04-16T06:10:03;37.95;;;24.02;;
20348;SDS011;10332;50.208;18.988;2023-04-16T06:12:34;32.17;;;22.52;;
20348;SDS011;10332;50.208;18.988;2023-04-16T06:15:03;34.45;;;23.02;;
20348;SDS011;10332;50.208;18.988;2023-04-16T06:17:33;31.52;;;21.20;;
20348;SDS011;10332;50.208;18.988;2023-04-16T06:20:00;28.23;;;20.00;;
20348;SDS011;10332;50.208;18.988;2023-04-16T06:22:28;31.73;;;21.50;;
20348;SDS011;10332;50.208;18.988;2023-04-16T06:24:56;29.17;;;20.20;;
20348;SDS011;10332;50.208;18.988;2023-04-16T06:27:24;30.98;;;20.63;;
20348;SDS011;10332;50.208;18.988;2023-04-16T06:29:52;30.88;;;20.30;;
20348;SDS011;10332;50.208;18.988;2023-04-16T06:32:19;29.27;;;20.13;;
20348;SDS011;10332;50.208;18.988;2023-04-16T06:34:47;29.45;;;19.33;;
20348;SDS011;10332;50.208;18.988;2023-04-16T06:37:15;24.40;;;17.23;;
20348;SDS011;10332;50.208;18.988;2023-04-16T06:39:43;20.23;;;15.27;;
20348;SDS011;10332;50.208;18.988;2023-04-16T06:42:11;24.42;;;17.15;;
20348;SDS011;10332;50.208;18.988;2023-04-16T06:44:38;31.48;;;19.13;;
20348;SDS011;10332;50.208;18.988;2023-04-16T06:47:06;30.65;;;21.52;;
20348;SDS011;10332;50.208;18.988;2023-04-16T06:49:34;36.83;;;23.95;;
20348;SDS011;10332;50.208;18.988;2023-04-16T06:52:01;37.97;;;23.80;;
20348;SDS011;10332;50.208;18.988;2023-04-16T06:54:31;37.63;;;24.15;;
20348;SDS011;10332;50.208;18.988;2023-04-16T06:56:59;31.85;;;20.95;;
20348;SDS011;10332;50.208;18.988;2023-04-16T06:59:26;31.45;;;20.98;;
20348;SDS011;10332;50.208;18.988;2023-04-16T07:01:54;27.05;;;19.25;;
20348;SDS011;10332;50.208;18.988;2023-04-16T07:04:22;33.45;;;21.95;;
20348;SDS011;10332;50.208;18.988;2023-04-16T07:06:50;36.17;;;22.88;;
20348;SDS011;10332;50.208;18.988;2023-04-16T07:09:17;23.85;;;16.52;;
20348;SDS011;10332;50.208;18.988;2023-04-16T07:11:45;25.65;;;18.27;;
20348;SDS011;10332;50.208;18.988;2023-04-16T07:14:13;24.90;;;18.42;;
20348;SDS011;10332;50.208;18.988;2023-04-16T07:16:40;27.02;;;18.45;;
20348;SDS011;10332;50.208;18.988;2023-04-16T07:19:08;26.95;;;18.13;;
20348;SDS011;10332;50.208;18.988;2023-04-16T07:21:36;24.83;;;17.75;;
20348;SDS011;10332;50.208;18.988;2023-04-16T07:24:03;20.25;;;14.63;;
20348;SDS011;10332;50.208;18.988;2023-04-16T07:26:31;22.20;;;16.27;;
20348;SDS011;10332;50.208;18.988;2023-04-16T07:28:59;17.33;;;11.70;;
20348;SDS011;10332;50.208;18.988;2023-04-16T07:31:26;15.88;;;11.57;;
20348;SDS011;10332;50.208;18.988;2023-04-16T07:33:54;15.00;;;11.48;;
20348;SDS011;10332;50.208;18.988;2023-04-16T07:36:21;22.33;;;16.58;;
20348;SDS011;10332;50.208;18.988;2023-04-16T07:38:49;19.75;;;14.25;;
20348;SDS011;10332;50.208;18.988;2023-04-16T07:41:16;18.35;;;14.07;;
20348;SDS011;10332;50.208;18.988;2023-04-16T07:43:44;28.38;;;21.98;;
20348;SDS011;10332;50.208;18.988;2023-04-16T07:46:11;25.80;;;19.60;;
20348;SDS011;10332;50.208;18.988;2023-04-16T07:48:38;32.53;;;22.13;;
20348;SDS011;10332;50.208;18.988;2023-04-16T07:51:06;24.98;;;17.58;;
20348;SDS011;10332;50.208;18.988;2023-04-16T07:53:34;24.35;;;18.25;;
20348;SDS011;10332;50.208;18.988;2023-04-16T07:56:01;16.70;;;13.20;;
20348;SDS011;10332;50.208;18.988;2023-04-16T07:58:29;14.43;;;11.32;;
20348;SDS011;10332;50.208;18.988;2023-04-16T08:00:57;11.88;;;9.63;;
20348;SDS011;10332;50.208;18.988;2023-04-16T08:03:24;15.60;;;11.15;;
20348;SDS011;10332;50.208;18.988;2023-04-16T08:05:52;15.73;;;11.45;;
20348;SDS011;10332;50.208;18.988;2023-04-16T08:08:20;12.20;;;9.52;;
20348;SDS011;10332;50.208;18.988;2023-04-16T08:10:48;11.65;;;9.20;;
20348;SDS011;10332;50.208;18.988;2023-04-16T08:13:21;12.00;;;9.00;;
20348;SDS011;10332;50.208;18.988;2023-04-16T08:15:50;11.88;;;9.27;;
20348;SDS011;10332;50.208;18.988;2023-04-16T08:18:17;9.98;;;8.57;;
20348;SDS011;10332;50.208;18.988;2023-04-16T08:20:45;9.57;;;7.50;;
20348;SDS011;10332;50.208;18.988;2023-04-16T08:23:12;10.77;;;8.07;;
20348;SDS011;10332;50.208;18.988;2023-04-16T08:25:41;8.70;;;7.40;;
20348;SDS011;10332;50.208;18.988;2023-04-16T08:28:08;14.05;;;11.73;;
20348;SDS011;10332;50.208;18.988;2023-04-16T08:30:36;14.52;;;11.43;;
20348;SDS011;10332;50.208;18.988;2023-04-16T08:33:03;14.65;;;12.25;;
20348;SDS011;10332;50.208;18.988;2023-04-16T08:35:32;8.20;;;6.80;;
20348;SDS011;10332;50.208;18.988;2023-04-16T08:38:01;11.30;;;10.10;;
20348;SDS011;10332;50.208;18.988;2023-04-16T08:40:30;13.20;;;9.93;;
20348;SDS011;10332;50.208;18.988;2023-04-16T08:43:04;10.48;;;8.85;;
20348;SDS011;10332;50.208;18.988;2023-04-16T08:45:39;12.02;;;10.30;;
20348;SDS011;10332;50.208;18.988;2023-04-16T08:48:08;13.38;;;11.10;;
20348;SDS011;10332;50.208;18.988;2023-04-16T08:50:38;14.27;;;11.05;;
20348;SDS011;10332;50.208;18.988;2023-04-16T08:53:09;16.95;;;13.20;;
20348;SDS011;10332;50.208;18.988;2023-04-16T08:55:47;11.30;;;8.77;;
20348;SDS011;10332;50.208;18.988;2023-04-16T08:58:17;11.07;;;9.10;;
20348;SDS011;10332;50.208;18.988;2023-04-16T09:00:48;10.82;;;8.88;;
20348;SDS011;10332;50.208;18.988;2023-04-16T09:03:16;11.55;;;8.90;;
20348;SDS011;10332;50.208;18.988;2023-04-16T09:05:48;9.02;;;7.82;;
20348;SDS011;10332;50.208;18.988;2023-04-16T09:08:16;8.30;;;6.40;;
20348;SDS011;10332;50.208;18.988;2023-04-16T09:10:44;7.60;;;6.00;;
20348;SDS011;10332;50.208;18.988;2023-04-16T09:13:12;6.90;;;6.18;;
20348;SDS011;10332;50.208;18.988;2023-04-16T09:15:42;4.68;;;4.07;;
20348;SDS011;10332;50.208;18.988;2023-04-16T09:18:10;5.55;;;5.05;;
20348;SDS011;10332;50.208;18.988;2023-04-16T09:20:38;5.57;;;5.03;;
20348;SDS011;10332;50.208;18.988;2023-04-16T09:23:05;7.10;;;5.45;;
20348;SDS011;10332;50.208;18.988;2023-04-16T09:25:33;6.00;;;5.40;;
20348;SDS011;10332;50.208;18.988;2023-04-16T09:28:01;6.28;;;5.55;;
20348;SDS011;10332;50.208;18.988;2023-04-16T09:30:29;6.32;;;5.72;;
20348;SDS011;10332;50.208;18.988;2023-04-16T09:33:39;6.65;;;5.90;;
20348;SDS011;10332;50.208;18.988;2023-04-16T09:35:51;13.98;;;12.10;;
20348;SDS011;10332;50.208;18.988;2023-04-16T09:38:19;15.65;;;13.48;;
20348;SDS011;10332;50.208;18.988;2023-04-16T09:40:46;14.40;;;12.93;;
20348;SDS011;10332;50.208;18.988;2023-04-16T09:43:31;5.20;;;4.70;;
20348;SDS011;10332;50.208;18.988;2023-04-16T09:45:58;7.07;;;5.30;;
20348;SDS011;10332;50.208;18.988;2023-04-16T09:48:29;5.03;;;4.50;;
20348;SDS011;10332;50.208;18.988;2023-04-16T09:51:00;4.90;;;4.40;;
20348;SDS011;10332;50.208;18.988;2023-04-16T09:53:29;5.43;;;4.78;;
20348;SDS011;10332;50.208;18.988;2023-04-16T09:56:01;6.38;;;5.28;;
20348;SDS011;10332;50.208;18.988;2023-04-16T09:58:31;5.45;;;4.78;;
20348;SDS011;10332;50.208;18.988;2023-04-16T10:01:04;5.63;;;5.10;;
20348;SDS011;10332;50.208;18.988;2023-04-16T10:03:38;6.60;;;5.20;;
20348;SDS011;10332;50.208;18.988;2023-04-16T10:06:17;5.15;;;4.65;;
20348;SDS011;10332;50.208;18.988;2023-04-16T10:08:46;4.45;;;3.88;;
20348;SDS011;10332;50.208;18.988;2023-04-16T10:11:19;4.35;;;3.95;;
20348;SDS011;10332;50.208;18.988;2023-04-16T10:13:47;3.05;;;2.80;;
20348;SDS011;10332;50.208;18.988;2023-04-16T10:16:15;5.18;;;4.57;;
20348;SDS011;10332;50.208;18.988;2023-04-16T10:18:44;3.22;;;2.90;;
20348;SDS011;10332;50.208;18.988;2023-04-16T10:21:14;6.32;;;5.72;;
20348;SDS011;10332;50.208;18.988;2023-04-16T10:23:42;3.30;;;3.00;;
20348;SDS011;10332;50.208;18.988;2023-04-16T10:26:10;2.60;;;2.40;;
20348;SDS011;10332;50.208;18.988;2023-04-16T10:28:38;3.30;;;3.00;;
20348;SDS011;10332;50.208;18.988;2023-04-16T10:31:09;2.90;;;2.70;;
20348;SDS011;10332;50.208;18.988;2023-04-16T10:33:39;2.60;;;2.40;;
20348;SDS011;10332;50.208;18.988;2023-04-16T10:36:11;3.20;;;2.85;;
20348;SDS011;10332;50.208;18.988;2023-04-16T10:38:45;3.28;;;2.97;;
20348;SDS011;10332;50.208;18.988;2023-04-16T10:41:15;2.83;;;2.63;;
20348;SDS011;10332;50.208;18.988;2023-04-16T10:43:46;2.38;;;2.17;;
20348;SDS011;10332;50.208;18.988;2023-04-16T10:48:46;2.30;;;2.10;;
20348;SDS011;10332;50.208;18.988;2023-04-16T10:51:29;9.30;;;8.50;;
20348;SDS011;10332;50.208;18.988;2023-04-16T10:56:45;4.13;;;3.72;;
20348;SDS011;10332;50.208;18.988;2023-04-16T10:59:16;3.63;;;3.33;;
20348;SDS011;10332;50.208;18.988;2023-04-16T11:01:47;9.13;;;8.10;;
20348;SDS011;10332;50.208;18.988;2023-04-16T11:15:04;3.80;;;3.40;;
20348;SDS011;10332;50.208;18.988;2023-04-16T11:17:47;2.90;;;2.70;;
20348;SDS011;10332;50.208;18.988;2023-04-16T11:22:53;2.30;;;2.10;;
20348;SDS011;10332;50.208;18.988;2023-04-16T11:25:23;1.90;;;1.80;;
20348;SDS011;10332;50.208;18.988;2023-04-16T11:27:56;1.80;;;1.70;;
20348;SDS011;10332;50.208;18.988;2023-04-16T11:30:34;2.20;;;2.00;;
20348;SDS011;10332;50.208;18.988;2023-04-16T11:33:04;1.95;;;1.80;;
20348;SDS011;10332;50.208;18.988;2023-04-16T11:35:35;2.78;;;1.92;;
20348;SDS011;10332;50.208;18.988;2023-04-16T11:38:07;2.72;;;2.10;;
20348;SDS011;10332;50.208;18.988;2023-04-16T11:40:34;2.30;;;2.10;;
20348;SDS011;10332;50.208;18.988;2023-04-16T11:43:04;4.55;;;3.70;;
20348;SDS011;10332;50.208;18.988;2023-04-16T11:45:58;3.03;;;2.38;;
20348;SDS011;10332;50.208;18.988;2023-04-16T11:48:51;2.80;;;2.28;;
20348;SDS011;10332;50.208;18.988;2023-04-16T11:51:21;3.40;;;3.00;;
20348;SDS011;10332;50.208;18.988;2023-04-16T11:53:49;2.72;;;2.45;;
20348;SDS011;10332;50.208;18.988;2023-04-16T11:59:15;2.00;;;1.90;;
20348;SDS011;10332;50.208;18.988;2023-04-16T12:01:50;7.95;;;6.60;;
20348;SDS011;10332;50.208;18.988;2023-04-16T12:04:25;3.78;;;3.40;;
20348;SDS011;10332;50.208;18.988;2023-04-16T12:09:37;2.22;;;2.08;;
20348;SDS011;10332;50.208;18.988;2023-04-16T12:12:26;2.50;;;2.30;;
20348;SDS011;10332;50.208;18.988;2023-04-16T12:14:58;2.65;;;2.15;;
20348;SDS011;10332;50.208;18.988;2023-04-16T12:17:32;2.58;;;2.25;;
20348;SDS011;10332;50.208;18.988;2023-04-16T12:20:03;2.70;;;2.50;;
20348;SDS011;10332;50.208;18.988;2023-04-16T12:22:37;2.53;;;2.33;;
20348;SDS011;10332;50.208;18.988;2023-04-16T12:25:12;3.28;;;2.80;;
20348;SDS011;10332;50.208;18.988;2023-04-16T12:30:23;3.85;;;2.80;;
20348;SDS011;10332;50.208;18.988;2023-04-16T12:33:02;2.88;;;2.58;;
20348;SDS011;10332;50.208;18.988;2023-04-16T12:35:41;27.90;;;24.90;;
20348;SDS011;10332;50.208;18.988;2023-04-16T12:38:10;30.48;;;27.23;;
20348;SDS011;10332;50.208;18.988;2023-04-16T12:40:40;3.13;;;2.83;;
20348;SDS011;10332;50.208;18.988;2023-04-16T12:43:08;2.80;;;2.60;;
20348;SDS011;10332;50.208;18.988;2023-04-16T12:45:37;4.13;;;3.22;;
20348;SDS011;10332;50.208;18.988;2023-04-16T12:48:06;2.80;;;2.60;;
20348;SDS011;10332;50.208;18.988;2023-04-16T12:50:33;3.20;;;2.90;;
20348;SDS011;10332;50.208;18.988;2023-04-16T12:53:01;4.18;;;3.20;;
20348;SDS011;10332;50.208;18.988;2023-04-16T12:55:28;3.42;;;3.13;;
20348;SDS011;10332;50.208;18.988;2023-04-16T12:57:56;3.30;;;3.00;;
20348;SDS011;10332;50.208;18.988;2023-04-16T13:00:24;3.88;;;3.17;;
20348;SDS011;10332;50.208;18.988;2023-04-16T13:02:52;3.97;;;3.33;;
20348;SDS011;10332;50.208;18.988;2023-04-16T13:05:20;4.28;;;3.72;;
20348;SDS011;10332;50.208;18.988;2023-04-16T13:07:47;3.60;;;3.13;;
20348;SDS011;10332;50.208;18.988;2023-04-16T13:10:15;3.80;;;3.10;;
20348;SDS011;10332;50.208;18.988;2023-04-16T13:12:42;3.53;;;3.00;;
20348;SDS011;10332;50.208;18.988;2023-04-16T13:15:12;3.90;;;3.30;;
20348;SDS011;10332;50.208;18.988;2023-04-16T13:17:39;6.00;;;4.72;;
20348;SDS011;10332;50.208;18.988;2023-04-16T13:20:07;12.80;;;10.88;;
20348;SDS011;10332;50.208;18.988;2023-04-16T13:22:36;17.10;;;13.10;;
20348;SDS011;10332;50.208;18.988;2023-04-16T13:25:03;6.82;;;5.20;;
20348;SDS011;10332;50.208;18.988;2023-04-16T13:27:32;5.97;;;5.15;;
20348;SDS011;10332;50.208;18.988;2023-04-16T13:30:00;7.22;;;5.85;;
20348;SDS011;10332;50.208;18.988;2023-04-16T13:32:27;10.23;;;8.75;;
20348;SDS011;10332;50.208;18.988;2023-04-16T13:34:55;16.40;;;13.50;;
20348;SDS011;10332;50.208;18.988;2023-04-16T13:37:22;21.77;;;18.27;;
20348;SDS011;10332;50.208;18.988;2023-04-16T13:39:50;7.55;;;6.25;;
20348;SDS011;10332;50.208;18.988;2023-04-16T13:42:17;6.53;;;5.80;;
20348;SDS011;10332;50.208;18.988;2023-04-16T13:44:45;6.28;;;5.50;;
20348;SDS011;10332;50.208;18.988;2023-04-16T13:47:14;6.00;;;5.07;;
20348;SDS011;10332;50.208;18.988;2023-04-16T13:49:43;6.20;;;5.55;;
20348;SDS011;10332;50.208;18.988;2023-04-16T13:52:10;7.70;;;6.50;;
20348;SDS011;10332;50.208;18.988;2023-04-16T13:54:38;5.43;;;4.90;;
20348;SDS011;10332;50.208;18.988;2023-04-16T13:57:07;5.13;;;4.63;;
20348;SDS011;10332;50.208;18.988;2023-04-16T13:59:34;9.40;;;6.97;;
20348;SDS011;10332;50.208;18.988;2023-04-16T14:02:02;17.63;;;14.55;;
20348;SDS011;10332;50.208;18.988;2023-04-16T14:04:31;6.55;;;5.85;;
20348;SDS011;10332;50.208;18.988;2023-04-16T14:06:58;5.55;;;4.78;;
20348;SDS011;10332;50.208;18.988;2023-04-16T14:09:26;5.22;;;4.30;;
20348;SDS011;10332;50.208;18.988;2023-04-16T14:11:53;4.95;;;4.45;;
20348;SDS011;10332;50.208;18.988;2023-04-16T14:14:21;5.18;;;4.22;;
20348;SDS011;10332;50.208;18.988;2023-04-16T14:16:48;4.65;;;4.03;;
20348;SDS011;10332;50.208;18.988;2023-04-16T14:19:16;4.63;;;3.67;;
20348;SDS011;10332;50.208;18.988;2023-04-16T14:21:44;4.93;;;4.13;;
20348;SDS011;10332;50.208;18.988;2023-04-16T14:24:11;3.47;;;3.10;;
20348;SDS011;10332;50.208;18.988;2023-04-16T14:26:38;12.88;;;10.70;;
20348;SDS011;10332;50.208;18.988;2023-04-16T14:29:06;53.45;;;46.58;;
20348;SDS011;10332;50.208;18.988;2023-04-16T14:31:34;18.50;;;16.50;;
20348;SDS011;10332;50.208;18.988;2023-04-16T14:34:02;13.70;;;10.85;;
20348;SDS011;10332;50.208;18.988;2023-04-16T14:36:30;3.70;;;3.22;;
20348;SDS011;10332;50.208;18.988;2023-04-16T14:38:57;3.08;;;2.53;;
20348;SDS011;10332;50.208;18.988;2023-04-16T14:41:25;2.83;;;2.20;;
20348;SDS011;10332;50.208;18.988;2023-04-16T14:43:52;3.10;;;2.70;;
20348;SDS011;10332;50.208;18.988;2023-04-16T14:46:20;2.50;;;2.30;;
20348;SDS011;10332;50.208;18.988;2023-04-16T14:48:47;2.45;;;2.20;;
20348;SDS011;10332;50.208;18.988;2023-04-16T14:51:15;2.95;;;2.70;;
20348;SDS011;10332;50.208;18.988;2023-04-16T14:53:42;3.28;;;2.58;;